sensor_id;sensor_type;location;lat;lon;timestamp;temperature;humidity
81311;DHT22;70779;52.506;5.492;2024-02-21T00:01:08;17.30;57.70
81311;DHT22;70779;52.506;5.492;2024-02-21T00:03:34;17.30;57.70
81311;DHT22;70779;52.506;5.492;2024-02-21T00:06:00;17.20;57.70
81311;DHT22;70779;52.506;5.492;2024-02-21T00:08:26;17.30;57.80
81311;DHT22;70779;52.506;5.492;2024-02-21T00:10:52;17.30;57.90
81311;DHT22;70779;52.506;5.492;2024-02-21T00:13:18;17.30;57.90
81311;DHT22;70779;52.506;5.492;2024-02-21T00:15:44;17.30;57.80
81311;DHT22;70779;52.506;5.492;2024-02-21T00:18:11;17.30;57.80
81311;DHT22;70779;52.506;5.492;2024-02-21T00:20:37;17.30;57.80
81311;DHT22;70779;52.506;5.492;2024-02-21T00:23:03;17.20;57.90
81311;DHT22;70779;52.506;5.492;2024-02-21T00:25:29;17.20;58.00
81311;DHT22;70779;52.506;5.492;2024-02-21T00:27:55;17.30;58.00
81311;DHT22;70779;52.506;5.492;2024-02-21T00:30:21;17.30;58.00
81311;DHT22;70779;52.506;5.492;2024-02-21T00:32:47;17.30;58.10
81311;DHT22;70779;52.506;5.492;2024-02-21T00:35:14;17.30;58.10
81311;DHT22;70779;52.506;5.492;2024-02-21T00:37:40;17.30;58.00
81311;DHT22;70779;52.506;5.492;2024-02-21T00:40:07;17.40;58.00
81311;DHT22;70779;52.506;5.492;2024-02-21T00:42:33;17.40;58.00
81311;DHT22;70779;52.506;5.492;2024-02-21T00:44:59;17.40;58.10
81311;DHT22;70779;52.506;5.492;2024-02-21T00:47:25;17.40;58.10
81311;DHT22;70779;52.506;5.492;2024-02-21T00:49:51;17.40;58.00
81311;DHT22;70779;52.506;5.492;2024-02-21T00:52:17;17.40;58.10
81311;DHT22;70779;52.506;5.492;2024-02-21T00:54:44;17.40;58.00
81311;DHT22;70779;52.506;5.492;2024-02-21T00:57:10;17.40;58.00
81311;DHT22;70779;52.506;5.492;2024-02-21T00:59:37;17.40;57.90
81311;DHT22;70779;52.506;5.492;2024-02-21T01:02:03;17.40;57.90
81311;DHT22;70779;52.506;5.492;2024-02-21T01:04:29;17.40;57.90
81311;DHT22;70779;52.506;5.492;2024-02-21T01:06:55;17.40;57.80
81311;DHT22;70779;52.506;5.492;2024-02-21T01:09:21;17.40;57.90
81311;DHT22;70779;52.506;5.492;2024-02-21T01:11:47;17.40;58.00
81311;DHT22;70779;52.506;5.492;2024-02-21T01:14:13;17.40;58.00
81311;DHT22;70779;52.506;5.492;2024-02-21T01:16:39;17.40;58.10
81311;DHT22;70779;52.506;5.492;2024-02-21T01:19:05;17.40;58.00
81311;DHT22;70779;52.506;5.492;2024-02-21T01:21:31;17.40;58.00
81311;DHT22;70779;52.506;5.492;2024-02-21T01:23:58;17.40;58.00
81311;DHT22;70779;52.506;5.492;2024-02-21T01:26:24;17.40;58.00
81311;DHT22;70779;52.506;5.492;2024-02-21T01:28:50;17.40;58.00
81311;DHT22;70779;52.506;5.492;2024-02-21T01:31:16;17.40;58.00
81311;DHT22;70779;52.506;5.492;2024-02-21T01:33:42;17.40;57.90
81311;DHT22;70779;52.506;5.492;2024-02-21T01:36:08;17.40;57.90
81311;DHT22;70779;52.506;5.492;2024-02-21T01:38:34;17.40;57.90
81311;DHT22;70779;52.506;5.492;2024-02-21T01:41:01;17.40;57.90
81311;DHT22;70779;52.506;5.492;2024-02-21T01:43:27;17.50;57.90
81311;DHT22;70779;52.506;5.492;2024-02-21T01:45:55;17.50;57.80
81311;DHT22;70779;52.506;5.492;2024-02-21T01:48:22;17.40;57.80
81311;DHT22;70779;52.506;5.492;2024-02-21T01:50:49;17.50;57.80
81311;DHT22;70779;52.506;5.492;2024-02-21T01:53:18;17.40;57.80
81311;DHT22;70779;52.506;5.492;2024-02-21T01:55:46;17.40;57.80
81311;DHT22;70779;52.506;5.492;2024-02-21T01:58:15;17.40;57.80
81311;DHT22;70779;52.506;5.492;2024-02-21T02:00:46;17.50;57.80
81311;DHT22;70779;52.506;5.492;2024-02-21T02:03:13;17.50;57.70
81311;DHT22;70779;52.506;5.492;2024-02-21T02:05:46;17.50;57.80
81311;DHT22;70779;52.506;5.492;2024-02-21T02:08:14;17.50;57.70
81311;DHT22;70779;52.506;5.492;2024-02-21T02:10:41;17.50;57.70
81311;DHT22;70779;52.506;5.492;2024-02-21T02:13:07;17.50;57.60
81311;DHT22;70779;52.506;5.492;2024-02-21T02:15:47;17.50;57.60
81311;DHT22;70779;52.506;5.492;2024-02-21T02:18:14;17.50;57.70
81311;DHT22;70779;52.506;5.492;2024-02-21T02:20:40;17.40;57.70
81311;DHT22;70779;52.506;5.492;2024-02-21T02:25:39;17.40;57.80
81311;DHT22;70779;52.506;5.492;2024-02-21T02:28:06;17.40;57.90
81311;DHT22;70779;52.506;5.492;2024-02-21T02:30:36;17.50;57.80
81311;DHT22;70779;52.506;5.492;2024-02-21T02:33:03;17.50;57.80
81311;DHT22;70779;52.506;5.492;2024-02-21T02:35:29;17.50;57.80
81311;DHT22;70779;52.506;5.492;2024-02-21T02:37:55;17.50;57.80
81311;DHT22;70779;52.506;5.492;2024-02-21T02:40:22;17.50;57.70
81311;DHT22;70779;52.506;5.492;2024-02-21T02:42:48;17.50;57.70
81311;DHT22;70779;52.506;5.492;2024-02-21T02:45:15;17.50;57.70
81311;DHT22;70779;52.506;5.492;2024-02-21T02:47:42;17.50;57.70
81311;DHT22;70779;52.506;5.492;2024-02-21T02:50:08;17.50;57.70
81311;DHT22;70779;52.506;5.492;2024-02-21T02:52:34;17.50;57.70
81311;DHT22;70779;52.506;5.492;2024-02-21T02:55:01;17.50;57.80
81311;DHT22;70779;52.506;5.492;2024-02-21T02:57:27;17.50;57.80
81311;DHT22;70779;52.506;5.492;2024-02-21T02:59:53;17.50;57.80
81311;DHT22;70779;52.506;5.492;2024-02-21T03:02:20;17.50;57.80
81311;DHT22;70779;52.506;5.492;2024-02-21T03:04:46;17.50;57.80
81311;DHT22;70779;52.506;5.492;2024-02-21T03:07:14;17.50;57.80
81311;DHT22;70779;52.506;5.492;2024-02-21T03:09:41;17.50;57.80
81311;DHT22;70779;52.506;5.492;2024-02-21T03:12:09;17.50;57.80
81311;DHT22;70779;52.506;5.492;2024-02-21T03:14:35;17.50;57.80
81311;DHT22;70779;52.506;5.492;2024-02-21T03:17:01;17.50;57.80
81311;DHT22;70779;52.506;5.492;2024-02-21T03:19:28;17.50;57.80
81311;DHT22;70779;52.506;5.492;2024-02-21T03:21:54;17.50;57.80
81311;DHT22;70779;52.506;5.492;2024-02-21T03:24:21;17.50;57.70
81311;DHT22;70779;52.506;5.492;2024-02-21T03:26:48;17.50;57.70
81311;DHT22;70779;52.506;5.492;2024-02-21T03:29:15;17.60;57.70
81311;DHT22;70779;52.506;5.492;2024-02-21T03:31:42;17.60;57.80
81311;DHT22;70779;52.506;5.492;2024-02-21T03:34:10;17.60;57.80
81311;DHT22;70779;52.506;5.492;2024-02-21T03:36:37;17.60;57.80
81311;DHT22;70779;52.506;5.492;2024-02-21T03:39:03;17.60;57.70
81311;DHT22;70779;52.506;5.492;2024-02-21T03:41:29;17.60;57.70
81311;DHT22;70779;52.506;5.492;2024-02-21T03:43:55;17.60;57.70
81311;DHT22;70779;52.506;5.492;2024-02-21T03:46:21;17.60;57.70
81311;DHT22;70779;52.506;5.492;2024-02-21T03:48:47;17.60;57.70
81311;DHT22;70779;52.506;5.492;2024-02-21T03:51:13;17.60;57.70
81311;DHT22;70779;52.506;5.492;2024-02-21T03:53:41;17.60;57.70
81311;DHT22;70779;52.506;5.492;2024-02-21T03:56:07;17.60;57.70
81311;DHT22;70779;52.506;5.492;2024-02-21T03:58:33;17.70;57.60
81311;DHT22;70779;52.506;5.492;2024-02-21T04:01:03;17.70;57.60
81311;DHT22;70779;52.506;5.492;2024-02-21T04:03:30;17.70;57.50
81311;DHT22;70779;52.506;5.492;2024-02-21T04:05:56;17.70;57.50
81311;DHT22;70779;52.506;5.492;2024-02-21T04:08:23;17.80;57.50
81311;DHT22;70779;52.506;5.492;2024-02-21T04:10:49;17.80;57.50
81311;DHT22;70779;52.506;5.492;2024-02-21T04:13:15;17.80;57.50
81311;DHT22;70779;52.506;5.492;2024-02-21T04:15:41;17.80;57.50
81311;DHT22;70779;52.506;5.492;2024-02-21T04:18:07;17.80;57.40
81311;DHT22;70779;52.506;5.492;2024-02-21T04:20:34;17.80;57.40
81311;DHT22;70779;52.506;5.492;2024-02-21T04:23:01;17.80;57.40
81311;DHT22;70779;52.506;5.492;2024-02-21T04:25:27;17.80;57.40
81311;DHT22;70779;52.506;5.492;2024-02-21T04:27:53;17.80;57.30
81311;DHT22;70779;52.506;5.492;2024-02-21T04:30:19;17.80;57.30
81311;DHT22;70779;52.506;5.492;2024-02-21T04:32:45;17.80;57.30
81311;DHT22;70779;52.506;5.492;2024-02-21T04:35:11;17.80;57.20
81311;DHT22;70779;52.506;5.492;2024-02-21T04:37:37;17.80;57.20
81311;DHT22;70779;52.506;5.492;2024-02-21T04:40:04;17.80;57.30
81311;DHT22;70779;52.506;5.492;2024-02-21T04:42:30;17.80;57.30
81311;DHT22;70779;52.506;5.492;2024-02-21T04:44:56;17.80;57.30
81311;DHT22;70779;52.506;5.492;2024-02-21T04:47:22;17.80;57.30
81311;DHT22;70779;52.506;5.492;2024-02-21T04:49:52;17.80;57.30
81311;DHT22;70779;52.506;5.492;2024-02-21T04:52:18;17.90;57.30
81311;DHT22;70779;52.506;5.492;2024-02-21T04:54:44;17.90;57.20
81311;DHT22;70779;52.506;5.492;2024-02-21T04:57:10;17.90;57.20
81311;DHT22;70779;52.506;5.492;2024-02-21T04:59:36;17.90;57.30
81311;DHT22;70779;52.506;5.492;2024-02-21T05:02:03;18.00;57.30
81311;DHT22;70779;52.506;5.492;2024-02-21T05:04:29;18.00;57.30
81311;DHT22;70779;52.506;5.492;2024-02-21T05:06:55;18.00;57.30
81311;DHT22;70779;52.506;5.492;2024-02-21T05:09:21;18.00;57.30
81311;DHT22;70779;52.506;5.492;2024-02-21T05:11:47;18.00;57.20
81311;DHT22;70779;52.506;5.492;2024-02-21T05:14:13;18.00;57.20
81311;DHT22;70779;52.506;5.492;2024-02-21T05:16:40;18.00;57.20
81311;DHT22;70779;52.506;5.492;2024-02-21T05:19:06;18.00;57.10
81311;DHT22;70779;52.506;5.492;2024-02-21T05:21:32;18.00;57.00
81311;DHT22;70779;52.506;5.492;2024-02-21T05:23:58;18.00;57.00
81311;DHT22;70779;52.506;5.492;2024-02-21T05:26:26;18.00;57.10
81311;DHT22;70779;52.506;5.492;2024-02-21T05:28:53;18.00;57.10
81311;DHT22;70779;52.506;5.492;2024-02-21T05:31:19;18.00;57.00
81311;DHT22;70779;52.506;5.492;2024-02-21T05:33:45;18.00;57.00
81311;DHT22;70779;52.506;5.492;2024-02-21T05:36:12;18.00;56.90
81311;DHT22;70779;52.506;5.492;2024-02-21T05:38:38;18.00;56.90
81311;DHT22;70779;52.506;5.492;2024-02-21T05:41:05;18.00;56.90
81311;DHT22;70779;52.506;5.492;2024-02-21T05:43:31;18.00;56.90
81311;DHT22;70779;52.506;5.492;2024-02-21T05:45:57;18.00;56.80
81311;DHT22;70779;52.506;5.492;2024-02-21T05:48:24;18.10;56.80
81311;DHT22;70779;52.506;5.492;2024-02-21T05:50:50;18.10;56.80
81311;DHT22;70779;52.506;5.492;2024-02-21T05:53:16;18.10;56.90
81311;DHT22;70779;52.506;5.492;2024-02-21T05:55:42;18.10;56.80
81311;DHT22;70779;52.506;5.492;2024-02-21T05:58:09;18.10;56.70
81311;DHT22;70779;52.506;5.492;2024-02-21T06:00:39;18.10;56.70
81311;DHT22;70779;52.506;5.492;2024-02-21T06:03:05;18.10;56.60
81311;DHT22;70779;52.506;5.492;2024-02-21T06:05:37;18.10;56.60
81311;DHT22;70779;52.506;5.492;2024-02-21T06:08:04;18.10;56.60
81311;DHT22;70779;52.506;5.492;2024-02-21T06:10:30;18.10;56.80
81311;DHT22;70779;52.506;5.492;2024-02-21T06:12:56;18.10;56.70
81311;DHT22;70779;52.506;5.492;2024-02-21T06:15:22;18.10;56.60
81311;DHT22;70779;52.506;5.492;2024-02-21T06:17:48;18.10;56.60
81311;DHT22;70779;52.506;5.492;2024-02-21T06:20:16;18.10;56.60
81311;DHT22;70779;52.506;5.492;2024-02-21T06:22:42;18.10;56.50
81311;DHT22;70779;52.506;5.492;2024-02-21T06:25:08;18.10;56.50
81311;DHT22;70779;52.506;5.492;2024-02-21T06:27:34;18.10;56.50
81311;DHT22;70779;52.506;5.492;2024-02-21T06:30:01;18.10;56.50
81311;DHT22;70779;52.506;5.492;2024-02-21T06:32:27;18.10;56.40
81311;DHT22;70779;52.506;5.492;2024-02-21T06:34:53;18.10;56.40
81311;DHT22;70779;52.506;5.492;2024-02-21T06:37:19;18.10;56.40
81311;DHT22;70779;52.506;5.492;2024-02-21T06:39:45;18.10;56.30
81311;DHT22;70779;52.506;5.492;2024-02-21T06:42:11;18.10;56.40
81311;DHT22;70779;52.506;5.492;2024-02-21T06:44:37;18.10;56.40
81311;DHT22;70779;52.506;5.492;2024-02-21T06:47:06;18.10;56.30
81311;DHT22;70779;52.506;5.492;2024-02-21T06:49:34;18.10;56.30
81311;DHT22;70779;52.506;5.492;2024-02-21T06:52:00;18.10;56.30
81311;DHT22;70779;52.506;5.492;2024-02-21T06:54:26;18.10;56.30
81311;DHT22;70779;52.506;5.492;2024-02-21T06:56:52;18.10;56.20
81311;DHT22;70779;52.506;5.492;2024-02-21T06:59:18;18.10;56.20
81311;DHT22;70779;52.506;5.492;2024-02-21T07:01:46;18.10;56.20
81311;DHT22;70779;52.506;5.492;2024-02-21T07:04:12;18.10;56.20
81311;DHT22;70779;52.506;5.492;2024-02-21T07:06:39;18.10;56.30
81311;DHT22;70779;52.506;5.492;2024-02-21T07:09:05;18.10;56.40
81311;DHT22;70779;52.506;5.492;2024-02-21T07:11:31;18.10;56.30
81311;DHT22;70779;52.506;5.492;2024-02-21T07:13:57;18.20;56.20
81311;DHT22;70779;52.506;5.492;2024-02-21T07:16:23;18.20;56.20
81311;DHT22;70779;52.506;5.492;2024-02-21T07:18:49;18.20;56.20
81311;DHT22;70779;52.506;5.492;2024-02-21T07:21:15;18.20;56.20
81311;DHT22;70779;52.506;5.492;2024-02-21T07:23:41;18.30;56.20
81311;DHT22;70779;52.506;5.492;2024-02-21T07:26:10;18.30;56.10
81311;DHT22;70779;52.506;5.492;2024-02-21T07:28:36;18.30;56.10
81311;DHT22;70779;52.506;5.492;2024-02-21T07:31:03;18.30;56.00
81311;DHT22;70779;52.506;5.492;2024-02-21T07:33:29;18.30;56.00
81311;DHT22;70779;52.506;5.492;2024-02-21T07:35:56;18.40;56.10
81311;DHT22;70779;52.506;5.492;2024-02-21T07:38:22;18.40;56.20
81311;DHT22;70779;52.506;5.492;2024-02-21T07:40:49;18.40;56.20
81311;DHT22;70779;52.506;5.492;2024-02-21T07:43:15;18.40;56.10
81311;DHT22;70779;52.506;5.492;2024-02-21T07:45:41;18.50;56.00
81311;DHT22;70779;52.506;5.492;2024-02-21T07:48:07;18.50;56.00
81311;DHT22;70779;52.506;5.492;2024-02-21T07:50:33;18.50;55.90
81311;DHT22;70779;52.506;5.492;2024-02-21T07:52:59;18.50;55.80
81311;DHT22;70779;52.506;5.492;2024-02-21T07:55:26;18.50;55.90
81311;DHT22;70779;52.506;5.492;2024-02-21T07:57:52;18.60;55.90
81311;DHT22;70779;52.506;5.492;2024-02-21T08:00:18;18.60;55.90
81311;DHT22;70779;52.506;5.492;2024-02-21T08:02:49;18.70;55.80
81311;DHT22;70779;52.506;5.492;2024-02-21T08:05:15;18.70;55.80
81311;DHT22;70779;52.506;5.492;2024-02-21T08:07:41;18.70;55.70
81311;DHT22;70779;52.506;5.492;2024-02-21T08:10:07;18.70;55.70
81311;DHT22;70779;52.506;5.492;2024-02-21T08:12:36;18.70;55.60
81311;DHT22;70779;52.506;5.492;2024-02-21T08:15:03;18.80;55.60
81311;DHT22;70779;52.506;5.492;2024-02-21T08:17:30;18.80;55.70
81311;DHT22;70779;52.506;5.492;2024-02-21T08:19:56;18.80;55.70
81311;DHT22;70779;52.506;5.492;2024-02-21T08:22:22;18.90;55.60
81311;DHT22;70779;52.506;5.492;2024-02-21T08:24:48;18.90;55.50
81311;DHT22;70779;52.506;5.492;2024-02-21T08:27:14;18.90;55.40
81311;DHT22;70779;52.506;5.492;2024-02-21T08:29:40;18.90;55.30
81311;DHT22;70779;52.506;5.492;2024-02-21T08:32:06;19.00;55.30
81311;DHT22;70779;52.506;5.492;2024-02-21T08:34:32;19.00;55.40
81311;DHT22;70779;52.506;5.492;2024-02-21T08:37:00;19.00;55.40
81311;DHT22;70779;52.506;5.492;2024-02-21T08:39:26;19.00;55.30
81311;DHT22;70779;52.506;5.492;2024-02-21T08:41:54;19.10;55.10
81311;DHT22;70779;52.506;5.492;2024-02-21T08:44:27;19.10;55.20
81311;DHT22;70779;52.506;5.492;2024-02-21T08:46:53;19.10;55.10
81311;DHT22;70779;52.506;5.492;2024-02-21T08:49:19;19.10;55.10
81311;DHT22;70779;52.506;5.492;2024-02-21T08:51:46;19.10;55.20
81311;DHT22;70779;52.506;5.492;2024-02-21T08:54:12;19.10;55.20
81311;DHT22;70779;52.506;5.492;2024-02-21T08:56:38;19.20;55.10
81311;DHT22;70779;52.506;5.492;2024-02-21T08:59:04;19.20;55.00
81311;DHT22;70779;52.506;5.492;2024-02-21T09:01:30;19.20;55.00
81311;DHT22;70779;52.506;5.492;2024-02-21T09:03:56;19.30;55.00
81311;DHT22;70779;52.506;5.492;2024-02-21T09:06:23;19.30;55.00
81311;DHT22;70779;52.506;5.492;2024-02-21T09:08:49;19.40;54.90
81311;DHT22;70779;52.506;5.492;2024-02-21T09:11:15;19.40;55.00
81311;DHT22;70779;52.506;5.492;2024-02-21T09:13:41;19.50;54.80
81311;DHT22;70779;52.506;5.492;2024-02-21T09:16:07;19.50;54.70
81311;DHT22;70779;52.506;5.492;2024-02-21T09:18:34;19.50;54.80
81311;DHT22;70779;52.506;5.492;2024-02-21T09:21:01;19.60;54.70
81311;DHT22;70779;52.506;5.492;2024-02-21T09:23:27;19.60;54.50
81311;DHT22;70779;52.506;5.492;2024-02-21T09:25:53;19.70;54.40
81311;DHT22;70779;52.506;5.492;2024-02-21T09:28:21;19.70;54.50
81311;DHT22;70779;52.506;5.492;2024-02-21T09:30:47;19.70;54.40
81311;DHT22;70779;52.506;5.492;2024-02-21T09:33:13;19.70;54.30
81311;DHT22;70779;52.506;5.492;2024-02-21T09:35:39;19.70;54.20
81311;DHT22;70779;52.506;5.492;2024-02-21T09:38:05;19.80;54.20
81311;DHT22;70779;52.506;5.492;2024-02-21T09:40:32;19.80;54.00
81311;DHT22;70779;52.506;5.492;2024-02-21T09:43:05;19.80;54.10
81311;DHT22;70779;52.506;5.492;2024-02-21T09:45:33;19.90;54.20
81311;DHT22;70779;52.506;5.492;2024-02-21T09:50:47;19.90;54.00
81311;DHT22;70779;52.506;5.492;2024-02-21T09:53:15;19.90;54.00
81311;DHT22;70779;52.506;5.492;2024-02-21T09:55:43;19.90;54.00
81311;DHT22;70779;52.506;5.492;2024-02-21T09:58:09;19.90;53.90
81311;DHT22;70779;52.506;5.492;2024-02-21T10:00:36;19.90;53.90
81311;DHT22;70779;52.506;5.492;2024-02-21T10:03:03;19.90;53.90
81311;DHT22;70779;52.506;5.492;2024-02-21T10:05:35;19.90;53.90
81311;DHT22;70779;52.506;5.492;2024-02-21T10:08:02;20.00;53.70
81311;DHT22;70779;52.506;5.492;2024-02-21T10:10:28;20.00;53.80
81311;DHT22;70779;52.506;5.492;2024-02-21T10:12:56;20.00;53.80
81311;DHT22;70779;52.506;5.492;2024-02-21T10:15:24;20.00;53.80
81311;DHT22;70779;52.506;5.492;2024-02-21T10:17:59;20.00;53.90
81311;DHT22;70779;52.506;5.492;2024-02-21T10:20:26;20.00;53.70
81311;DHT22;70779;52.506;5.492;2024-02-21T10:23:02;20.00;53.70
81311;DHT22;70779;52.506;5.492;2024-02-21T10:25:35;20.00;53.60
81311;DHT22;70779;52.506;5.492;2024-02-21T10:28:07;20.00;53.50
81311;DHT22;70779;52.506;5.492;2024-02-21T10:30:33;20.00;53.50
81311;DHT22;70779;52.506;5.492;2024-02-21T10:32:59;20.00;53.50
81311;DHT22;70779;52.506;5.492;2024-02-21T10:37:54;20.10;53.50
81311;DHT22;70779;52.506;5.492;2024-02-21T10:40:26;20.10;53.40
81311;DHT22;70779;52.506;5.492;2024-02-21T10:42:59;20.10;53.40
81311;DHT22;70779;52.506;5.492;2024-02-21T10:45:33;20.10;53.30
81311;DHT22;70779;52.506;5.492;2024-02-21T10:48:11;20.10;53.30
81311;DHT22;70779;52.506;5.492;2024-02-21T10:58:37;20.30;53.30
81311;DHT22;70779;52.506;5.492;2024-02-21T11:01:05;20.40;53.30
81311;DHT22;70779;52.506;5.492;2024-02-21T11:03:32;20.50;53.10
81311;DHT22;70779;52.506;5.492;2024-02-21T11:05:59;20.50;52.90
81311;DHT22;70779;52.506;5.492;2024-02-21T11:08:26;20.50;52.90
81311;DHT22;70779;52.506;5.492;2024-02-21T11:10:57;20.50;52.90
81311;DHT22;70779;52.506;5.492;2024-02-21T11:13:38;20.60;52.80
81311;DHT22;70779;52.506;5.492;2024-02-21T11:16:11;20.60;52.70
81311;DHT22;70779;52.506;5.492;2024-02-21T11:18:38;20.60;52.60
81311;DHT22;70779;52.506;5.492;2024-02-21T11:21:04;20.60;52.50
81311;DHT22;70779;52.506;5.492;2024-02-21T11:23:31;20.60;52.20
81311;DHT22;70779;52.506;5.492;2024-02-21T11:26:07;20.50;52.20
81311;DHT22;70779;52.506;5.492;2024-02-21T11:28:34;20.50;52.00
81311;DHT22;70779;52.506;5.492;2024-02-21T11:31:12;20.40;52.10
81311;DHT22;70779;52.506;5.492;2024-02-21T11:33:42;20.30;52.40
81311;DHT22;70779;52.506;5.492;2024-02-21T11:36:09;20.30;52.60
81311;DHT22;70779;52.506;5.492;2024-02-21T11:38:36;20.30;52.70
81311;DHT22;70779;52.506;5.492;2024-02-21T11:41:02;20.40;52.60
81311;DHT22;70779;52.506;5.492;2024-02-21T11:43:28;20.40;52.50
81311;DHT22;70779;52.506;5.492;2024-02-21T11:46:01;20.30;52.50
81311;DHT22;70779;52.506;5.492;2024-02-21T11:48:28;20.30;52.60
81311;DHT22;70779;52.506;5.492;2024-02-21T11:50:55;20.30;52.50
81311;DHT22;70779;52.506;5.492;2024-02-21T11:53:22;20.30;52.50
81311;DHT22;70779;52.506;5.492;2024-02-21T11:55:49;20.30;52.50
81311;DHT22;70779;52.506;5.492;2024-02-21T11:58:15;20.30;52.60
81311;DHT22;70779;52.506;5.492;2024-02-21T12:00:41;20.30;52.60
81311;DHT22;70779;52.506;5.492;2024-02-21T12:03:08;20.30;52.60
81311;DHT22;70779;52.506;5.492;2024-02-21T12:05:34;20.30;52.70
81311;DHT22;70779;52.506;5.492;2024-02-21T12:08:01;20.30;52.60
81311;DHT22;70779;52.506;5.492;2024-02-21T12:10:27;20.30;52.70
81311;DHT22;70779;52.506;5.492;2024-02-21T12:12:53;20.30;52.80
81311;DHT22;70779;52.506;5.492;2024-02-21T12:15:24;20.30;52.80
81311;DHT22;70779;52.506;5.492;2024-02-21T12:17:50;20.30;52.60
81311;DHT22;70779;52.506;5.492;2024-02-21T12:20:17;20.30;52.50
81311;DHT22;70779;52.506;5.492;2024-02-21T12:22:44;20.30;52.40
81311;DHT22;70779;52.506;5.492;2024-02-21T12:25:16;20.20;52.50
81311;DHT22;70779;52.506;5.492;2024-02-21T12:27:46;20.10;52.50
81311;DHT22;70779;52.506;5.492;2024-02-21T12:30:12;20.10;52.40
81311;DHT22;70779;52.506;5.492;2024-02-21T12:32:38;20.00;52.50
81311;DHT22;70779;52.506;5.492;2024-02-21T12:35:05;20.00;52.60
81311;DHT22;70779;52.506;5.492;2024-02-21T12:37:31;20.10;52.60
81311;DHT22;70779;52.506;5.492;2024-02-21T12:39:57;20.10;52.60
81311;DHT22;70779;52.506;5.492;2024-02-21T12:42:23;20.20;52.70
81311;DHT22;70779;52.506;5.492;2024-02-21T12:44:49;20.30;52.50
81311;DHT22;70779;52.506;5.492;2024-02-21T12:47:15;20.30;52.50
81311;DHT22;70779;52.506;5.492;2024-02-21T12:49:42;20.30;52.40
81311;DHT22;70779;52.506;5.492;2024-02-21T12:52:08;20.30;52.10
81311;DHT22;70779;52.506;5.492;2024-02-21T12:54:34;20.30;52.30
81311;DHT22;70779;52.506;5.492;2024-02-21T12:57:00;20.30;52.40
81311;DHT22;70779;52.506;5.492;2024-02-21T12:59:31;20.30;52.50
81311;DHT22;70779;52.506;5.492;2024-02-21T13:01:57;20.40;52.50
81311;DHT22;70779;52.506;5.492;2024-02-21T13:04:23;20.40;52.50
81311;DHT22;70779;52.506;5.492;2024-02-21T13:06:50;20.40;52.40
81311;DHT22;70779;52.506;5.492;2024-02-21T13:09:16;20.40;52.50
81311;DHT22;70779;52.506;5.492;2024-02-21T13:11:42;20.40;52.50
81311;DHT22;70779;52.506;5.492;2024-02-21T13:14:10;20.50;52.20
81311;DHT22;70779;52.506;5.492;2024-02-21T13:16:36;20.40;52.00
81311;DHT22;70779;52.506;5.492;2024-02-21T13:19:06;20.40;52.10
81311;DHT22;70779;52.506;5.492;2024-02-21T13:21:32;20.30;52.20
81311;DHT22;70779;52.506;5.492;2024-02-21T13:23:58;20.30;52.20
81311;DHT22;70779;52.506;5.492;2024-02-21T13:26:24;20.30;52.30
81311;DHT22;70779;52.506;5.492;2024-02-21T13:28:50;20.30;52.20
81311;DHT22;70779;52.506;5.492;2024-02-21T13:31:16;20.30;52.10
81311;DHT22;70779;52.506;5.492;2024-02-21T13:33:43;20.30;52.20
81311;DHT22;70779;52.506;5.492;2024-02-21T13:36:10;20.20;52.20
81311;DHT22;70779;52.506;5.492;2024-02-21T13:38:36;20.20;52.50
81311;DHT22;70779;52.506;5.492;2024-02-21T13:41:07;20.30;52.40
81311;DHT22;70779;52.506;5.492;2024-02-21T13:43:33;20.30;52.20
81311;DHT22;70779;52.506;5.492;2024-02-21T13:46:01;20.30;52.30
81311;DHT22;70779;52.506;5.492;2024-02-21T13:48:28;20.30;52.50
81311;DHT22;70779;52.506;5.492;2024-02-21T13:50:56;20.30;52.30
81311;DHT22;70779;52.506;5.492;2024-02-21T13:53:22;20.20;52.20
81311;DHT22;70779;52.506;5.492;2024-02-21T13:55:49;20.10;52.30
81311;DHT22;70779;52.506;5.492;2024-02-21T13:58:16;20.10;52.30
81311;DHT22;70779;52.506;5.492;2024-02-21T14:00:43;20.10;52.50
81311;DHT22;70779;52.506;5.492;2024-02-21T14:03:09;20.00;52.50
81311;DHT22;70779;52.506;5.492;2024-02-21T14:05:35;20.00;52.70
81311;DHT22;70779;52.506;5.492;2024-02-21T14:08:01;20.00;52.80
81311;DHT22;70779;52.506;5.492;2024-02-21T14:10:28;20.00;53.00
81311;DHT22;70779;52.506;5.492;2024-02-21T14:12:54;19.90;53.10
81311;DHT22;70779;52.506;5.492;2024-02-21T14:15:20;19.80;53.20
81311;DHT22;70779;52.506;5.492;2024-02-21T14:17:47;19.80;53.40
81311;DHT22;70779;52.506;5.492;2024-02-21T14:20:13;19.70;53.40
81311;DHT22;70779;52.506;5.492;2024-02-21T14:25:24;19.70;53.60
81311;DHT22;70779;52.506;5.492;2024-02-21T14:27:50;19.60;53.60
81311;DHT22;70779;52.506;5.492;2024-02-21T14:30:16;19.60;53.70
81311;DHT22;70779;52.506;5.492;2024-02-21T14:32:44;19.50;53.80
81311;DHT22;70779;52.506;5.492;2024-02-21T14:35:10;19.50;53.90
81311;DHT22;70779;52.506;5.492;2024-02-21T14:37:37;19.50;54.00
81311;DHT22;70779;52.506;5.492;2024-02-21T14:40:03;19.50;54.00
81311;DHT22;70779;52.506;5.492;2024-02-21T14:42:29;19.40;54.00
81311;DHT22;70779;52.506;5.492;2024-02-21T14:44:55;19.40;54.30
81311;DHT22;70779;52.506;5.492;2024-02-21T14:47:30;19.40;54.60
81311;DHT22;70779;52.506;5.492;2024-02-21T14:49:56;19.40;54.90
81311;DHT22;70779;52.506;5.492;2024-02-21T14:52:23;19.40;55.00
81311;DHT22;70779;52.506;5.492;2024-02-21T14:54:50;19.40;55.20
81311;DHT22;70779;52.506;5.492;2024-02-21T14:57:17;19.40;55.30
81311;DHT22;70779;52.506;5.492;2024-02-21T14:59:43;19.30;55.40
81311;DHT22;70779;52.506;5.492;2024-02-21T15:02:10;19.30;55.60
81311;DHT22;70779;52.506;5.492;2024-02-21T15:04:36;19.30;55.70
81311;DHT22;70779;52.506;5.492;2024-02-21T15:07:02;19.30;55.70
81311;DHT22;70779;52.506;5.492;2024-02-21T15:09:28;19.30;55.70
81311;DHT22;70779;52.506;5.492;2024-02-21T15:11:54;19.30;55.70
81311;DHT22;70779;52.506;5.492;2024-02-21T15:14:20;19.30;55.60
81311;DHT22;70779;52.506;5.492;2024-02-21T15:16:46;19.30;55.60
81311;DHT22;70779;52.506;5.492;2024-02-21T15:19:12;19.20;55.60
81311;DHT22;70779;52.506;5.492;2024-02-21T15:21:38;19.20;55.50
81311;DHT22;70779;52.506;5.492;2024-02-21T15:24:05;19.10;55.70
81311;DHT22;70779;52.506;5.492;2024-02-21T15:26:31;19.10;55.70
81311;DHT22;70779;52.506;5.492;2024-02-21T15:28:57;19.00;55.70
81311;DHT22;70779;52.506;5.492;2024-02-21T15:31:24;19.00;55.70
81311;DHT22;70779;52.506;5.492;2024-02-21T15:33:51;19.00;55.60
81311;DHT22;70779;52.506;5.492;2024-02-21T15:36:18;18.90;55.70
81311;DHT22;70779;52.506;5.492;2024-02-21T15:38:48;18.90;55.70
81311;DHT22;70779;52.506;5.492;2024-02-21T15:41:14;18.80;55.70
81311;DHT22;70779;52.506;5.492;2024-02-21T15:43:40;18.80;55.90
81311;DHT22;70779;52.506;5.492;2024-02-21T15:46:06;18.70;55.80